sensor_id;sensor_type;location;lat;lon;timestamp;P1;durP1;ratioP1;P2;durP2;ratioP2
49592;SDS011;35499;51.482;4.264;2022-09-09T08:05:49;4.47;;;1.45;;
49592;SDS011;35499;51.482;4.264;2022-09-09T08:08:33;5.75;;;1.80;;
49592;SDS011;35499;51.482;4.264;2022-09-09T08:11:17;2.95;;;0.90;;
49592;SDS011;35499;51.482;4.264;2022-09-09T08:14:01;4.60;;;1.45;;
49592;SDS011;35499;51.482;4.264;2022-09-09T08:16:46;8.55;;;2.15;;
49592;SDS011;35499;51.482;4.264;2022-09-09T08:19:30;8.18;;;2.45;;
49592;SDS011;35499;51.482;4.264;2022-09-09T08:22:17;3.28;;;1.50;;
49592;SDS011;35499;51.482;4.264;2022-09-09T08:25:01;5.45;;;1.40;;
49592;SDS011;35499;51.482;4.264;2022-09-09T08:27:45;6.95;;;1.75;;
49592;SDS011;35499;51.482;4.264;2022-09-09T08:30:29;7.10;;;1.60;;
49592;SDS011;35499;51.482;4.264;2022-09-09T08:33:13;4.47;;;1.40;;
49592;SDS011;35499;51.482;4.264;2022-09-09T08:35:57;4.88;;;1.27;;
49592;SDS011;35499;51.482;4.264;2022-09-09T08:38:42;3.00;;;1.50;;
49592;SDS011;35499;51.482;4.264;2022-09-09T08:47:26;3.13;;;1.02;;
49592;SDS011;35499;51.482;4.264;2022-09-09T08:50:30;5.30;;;1.45;;
49592;SDS011;35499;51.482;4.264;2022-09-09T08:53:19;4.72;;;1.50;;
49592;SDS011;35499;51.482;4.264;2022-09-09T08:56:10;5.15;;;1.27;;
49592;SDS011;35499;51.482;4.264;2022-09-09T08:58:55;4.07;;;1.48;;
49592;SDS011;35499;51.482;4.264;2022-09-09T09:04:50;5.93;;;1.25;;
49592;SDS011;35499;51.482;4.264;2022-09-09T09:10:33;7.50;;;1.30;;
49592;SDS011;35499;51.482;4.264;2022-09-09T09:16:27;4.53;;;1.17;;
49592;SDS011;35499;51.482;4.264;2022-09-09T09:19:13;4.72;;;1.42;;
49592;SDS011;35499;51.482;4.264;2022-09-09T09:30:28;3.22;;;1.15;;
49592;SDS011;35499;51.482;4.264;2022-09-09T09:36:04;3.03;;;1.10;;
49592;SDS011;35499;51.482;4.264;2022-09-09T09:41:37;5.90;;;1.50;;
49592;SDS011;35499;51.482;4.264;2022-09-09T09:44:29;4.07;;;1.10;;
49592;SDS011;35499;51.482;4.264;2022-09-09T09:47:22;3.33;;;1.50;;
49592;SDS011;35499;51.482;4.264;2022-09-09T09:50:17;6.05;;;1.38;;
49592;SDS011;35499;51.482;4.264;2022-09-09T09:53:03;6.43;;;1.40;;
49592;SDS011;35499;51.482;4.264;2022-09-09T09:55:50;4.75;;;1.50;;
49592;SDS011;35499;51.482;4.264;2022-09-09T10:01:30;3.60;;;1.55;;
49592;SDS011;35499;51.482;4.264;2022-09-09T10:07:09;5.97;;;1.52;;
49592;SDS011;35499;51.482;4.264;2022-09-09T10:09:54;4.30;;;1.30;;
49592;SDS011;35499;51.482;4.264;2022-09-09T10:12:43;2.88;;;1.10;;
49592;SDS011;35499;51.482;4.264;2022-09-09T10:15:39;6.20;;;1.50;;
49592;SDS011;35499;51.482;4.264;2022-09-09T10:18:36;3.80;;;1.65;;
49592;SDS011;35499;51.482;4.264;2022-09-09T10:27:14;3.15;;;1.27;;
49592;SDS011;35499;51.482;4.264;2022-09-09T10:32:57;3.60;;;1.40;;
49592;SDS011;35499;51.482;4.264;2022-09-09T10:38:42;6.30;;;1.90;;
49592;SDS011;35499;51.482;4.264;2022-09-09T10:44:17;3.70;;;1.50;;
49592;SDS011;35499;51.482;4.264;2022-09-09T10:47:17;4.05;;;1.70;;
49592;SDS011;35499;51.482;4.264;2022-09-09T10:50:29;4.65;;;1.15;;
49592;SDS011;35499;51.482;4.264;2022-09-09T10:53:19;4.05;;;1.83;;
49592;SDS011;35499;51.482;4.264;2022-09-09T10:56:09;5.30;;;1.33;;
49592;SDS011;35499;51.482;4.264;2022-09-09T11:01:46;4.40;;;1.58;;
49592;SDS011;35499;51.482;4.264;2022-09-09T11:04:40;4.25;;;1.40;;
49592;SDS011;35499;51.482;4.264;2022-09-09T11:07:28;3.65;;;1.15;;
49592;SDS011;35499;51.482;4.264;2022-09-09T11:13:02;3.08;;;1.08;;
49592;SDS011;35499;51.482;4.264;2022-09-09T11:15:52;2.55;;;1.17;;
49592;SDS011;35499;51.482;4.264;2022-09-09T11:18:37;3.83;;;0.90;;
49592;SDS011;35499;51.482;4.264;2022-09-09T11:21:24;2.15;;;1.02;;
49592;SDS011;35499;51.482;4.264;2022-09-09T11:24:24;5.95;;;1.42;;
49592;SDS011;35499;51.482;4.264;2022-09-09T11:38:47;2.77;;;1.00;;
49592;SDS011;35499;51.482;4.264;2022-09-09T11:41:35;3.85;;;1.20;;
49592;SDS011;35499;51.482;4.264;2022-09-09T11:44:25;5.18;;;0.93;;
49592;SDS011;35499;51.482;4.264;2022-09-09T11:47:21;8.32;;;1.10;;
49592;SDS011;35499;51.482;4.264;2022-09-09T11:56:12;5.43;;;1.80;;
49592;SDS011;35499;51.482;4.264;2022-09-09T11:59:04;4.03;;;0.90;;
49592;SDS011;35499;51.482;4.264;2022-09-09T12:01:49;2.35;;;1.30;;
49592;SDS011;35499;51.482;4.264;2022-09-09T12:04:38;2.50;;;0.77;;
49592;SDS011;35499;51.482;4.264;2022-09-09T12:07:36;4.70;;;1.20;;
49592;SDS011;35499;51.482;4.264;2022-09-09T12:10:24;3.28;;;1.00;;
49592;SDS011;35499;51.482;4.264;2022-09-09T12:16:00;3.40;;;1.50;;
49592;SDS011;35499;51.482;4.264;2022-09-09T12:18:45;3.25;;;1.10;;
49592;SDS011;35499;51.482;4.264;2022-09-09T12:21:34;2.50;;;1.30;;
49592;SDS011;35499;51.482;4.264;2022-09-09T12:24:37;3.20;;;1.33;;
49592;SDS011;35499;51.482;4.264;2022-09-09T12:27:25;3.08;;;1.25;;
49592;SDS011;35499;51.482;4.264;2022-09-09T12:30:10;2.58;;;1.20;;
49592;SDS011;35499;51.482;4.264;2022-09-09T12:33:01;4.05;;;1.42;;
49592;SDS011;35499;51.482;4.264;2022-09-09T12:35:47;4.43;;;1.95;;
49592;SDS011;35499;51.482;4.264;2022-09-09T12:38:37;4.13;;;1.80;;
49592;SDS011;35499;51.482;4.264;2022-09-09T12:41:23;4.90;;;1.80;;
49592;SDS011;35499;51.482;4.264;2022-09-09T12:44:08;4.70;;;1.92;;
49592;SDS011;35499;51.482;4.264;2022-09-09T12:46:53;2.88;;;1.52;;
49592;SDS011;35499;51.482;4.264;2022-09-09T12:49:38;3.40;;;1.70;;
49592;SDS011;35499;51.482;4.264;2022-09-09T12:52:25;3.97;;;1.60;;
49592;SDS011;35499;51.482;4.264;2022-09-09T12:55:20;6.03;;;1.70;;
49592;SDS011;35499;51.482;4.264;2022-09-09T12:58:05;3.70;;;1.52;;
49592;SDS011;35499;51.482;4.264;2022-09-09T13:00:53;2.55;;;1.25;;
49592;SDS011;35499;51.482;4.264;2022-09-09T13:03:42;3.78;;;1.92;;
49592;SDS011;35499;51.482;4.264;2022-09-09T13:06:29;4.65;;;1.80;;
49592;SDS011;35499;51.482;4.264;2022-09-09T13:09:13;2.85;;;1.35;;
49592;SDS011;35499;51.482;4.264;2022-09-09T13:11:57;2.90;;;1.40;;
49592;SDS011;35499;51.482;4.264;2022-09-09T13:14:43;4.60;;;1.85;;
49592;SDS011;35499;51.482;4.264;2022-09-09T13:17:27;4.20;;;1.67;;
49592;SDS011;35499;51.482;4.264;2022-09-09T13:20:18;5.07;;;2.07;;
49592;SDS011;35499;51.482;4.264;2022-09-09T13:26:00;6.00;;;1.60;;
49592;SDS011;35499;51.482;4.264;2022-09-09T13:28:44;4.20;;;1.45;;
49592;SDS011;35499;51.482;4.264;2022-09-09T13:31:30;5.32;;;1.63;;
49592;SDS011;35499;51.482;4.264;2022-09-09T13:34:27;4.47;;;1.75;;
49592;SDS011;35499;51.482;4.264;2022-09-09T13:37:18;7.43;;;1.88;;
49592;SDS011;35499;51.482;4.264;2022-09-09T13:40:04;6.90;;;2.20;;
49592;SDS011;35499;51.482;4.264;2022-09-09T13:42:54;3.10;;;1.60;;
49592;SDS011;35499;51.482;4.264;2022-09-09T13:45:38;5.53;;;2.08;;
49592;SDS011;35499;51.482;4.264;2022-09-09T13:48:22;7.88;;;2.10;;
49592;SDS011;35499;51.482;4.264;2022-09-09T13:51:21;3.75;;;1.27;;
49592;SDS011;35499;51.482;4.264;2022-09-09T13:54:10;6.22;;;1.98;;
49592;SDS011;35499;51.482;4.264;2022-09-09T13:56:54;6.93;;;2.53;;
49592;SDS011;35499;51.482;4.264;2022-09-09T13:59:38;4.20;;;1.63;;
49592;SDS011;35499;51.482;4.264;2022-09-09T14:02:22;2.58;;;1.20;;
49592;SDS011;35499;51.482;4.264;2022-09-09T14:05:07;2.58;;;1.48;;
49592;SDS011;35499;51.482;4.264;2022-09-09T14:07:51;3.47;;;1.83;;
49592;SDS011;35499;51.482;4.264;2022-09-09T14:10:35;3.67;;;1.58;;
49592;SDS011;35499;51.482;4.264;2022-09-09T14:13:21;3.45;;;1.60;;
49592;SDS011;35499;51.482;4.264;2022-09-09T14:16:05;4.03;;;1.48;;
49592;SDS011;35499;51.482;4.264;2022-09-09T14:18:49;3.08;;;1.20;;
49592;SDS011;35499;51.482;4.264;2022-09-09T14:21:33;2.00;;;1.10;;
49592;SDS011;35499;51.482;4.264;2022-09-09T14:24:17;2.28;;;1.25;;
49592;SDS011;35499;51.482;4.264;2022-09-09T14:27:01;2.28;;;1.02;;
49592;SDS011;35499;51.482;4.264;2022-09-09T14:29:45;2.30;;;1.20;;
49592;SDS011;35499;51.482;4.264;2022-09-09T14:32:29;3.72;;;1.45;;
49592;SDS011;35499;51.482;4.264;2022-09-09T14:35:13;3.47;;;1.23;;
49592;SDS011;35499;51.482;4.264;2022-09-09T14:37:57;3.13;;;1.10;;
49592;SDS011;35499;51.482;4.264;2022-09-09T14:40:44;3.10;;;1.10;;
49592;SDS011;35499;51.482;4.264;2022-09-09T14:43:29;3.90;;;1.85;;
49592;SDS011;35499;51.482;4.264;2022-09-09T14:46:15;3.38;;;1.13;;
49592;SDS011;35499;51.482;4.264;2022-09-09T14:48:59;3.03;;;1.50;;
49592;SDS011;35499;51.482;4.264;2022-09-09T14:51:43;2.65;;;1.00;;
49592;SDS011;35499;51.482;4.264;2022-09-09T14:54:27;2.67;;;1.13;;
49592;SDS011;35499;51.482;4.264;2022-09-09T14:57:11;2.33;;;1.05;;
49592;SDS011;35499;51.482;4.264;2022-09-09T14:59:55;2.50;;;1.20;;
49592;SDS011;35499;51.482;4.264;2022-09-09T15:02:40;3.80;;;1.30;;
49592;SDS011;35499;51.482;4.264;2022-09-09T15:05:24;2.30;;;1.20;;
49592;SDS011;35499;51.482;4.264;2022-09-09T15:08:08;7.38;;;1.10;;
49592;SDS011;35499;51.482;4.264;2022-09-09T15:10:58;2.80;;;1.50;;
49592;SDS011;35499;51.482;4.264;2022-09-09T15:13:43;4.88;;;1.90;;
49592;SDS011;35499;51.482;4.264;2022-09-09T15:16:27;3.92;;;1.77;;
49592;SDS011;35499;51.482;4.264;2022-09-09T15:19:12;5.28;;;1.52;;
49592;SDS011;35499;51.482;4.264;2022-09-09T15:21:56;5.43;;;1.40;;
49592;SDS011;35499;51.482;4.264;2022-09-09T15:24:40;5.97;;;1.77;;
49592;SDS011;35499;51.482;4.264;2022-09-09T15:27:24;3.80;;;1.40;;
49592;SDS011;35499;51.482;4.264;2022-09-09T15:30:08;3.10;;;1.75;;
49592;SDS011;35499;51.482;4.264;2022-09-09T15:32:53;4.55;;;1.90;;
49592;SDS011;35499;51.482;4.264;2022-09-09T15:35:37;3.22;;;1.75;;
49592;SDS011;35499;51.482;4.264;2022-09-09T15:38:21;3.03;;;1.45;;
49592;SDS011;35499;51.482;4.264;2022-09-09T15:41:05;4.47;;;1.80;;
49592;SDS011;35499;51.482;4.264;2022-09-09T15:43:50;3.88;;;1.38;;
49592;SDS011;35499;51.482;4.264;2022-09-09T15:46:35;3.17;;;1.38;;
49592;SDS011;35499;51.482;4.264;2022-09-09T15:52:09;3.15;;;1.38;;
49592;SDS011;35499;51.482;4.264;2022-09-09T15:54:53;3.25;;;1.40;;
49592;SDS011;35499;51.482;4.264;2022-09-09T15:57:37;4.05;;;1.50;;
49592;SDS011;35499;51.482;4.264;2022-09-09T16:00:21;6.72;;;4.43;;
49592;SDS011;35499;51.482;4.264;2022-09-09T16:03:06;5.63;;;2.22;;
49592;SDS011;35499;51.482;4.264;2022-09-09T16:05:51;8.02;;;1.77;;
49592;SDS011;35499;51.482;4.264;2022-09-09T16:08:38;3.75;;;1.17;;
49592;SDS011;35499;51.482;4.264;2022-09-09T16:11:30;6.38;;;1.70;;
49592;SDS011;35499;51.482;4.264;2022-09-09T16:14:15;4.90;;;1.88;;
49592;SDS011;35499;51.482;4.264;2022-09-09T16:16:59;8.27;;;1.20;;
49592;SDS011;35499;51.482;4.264;2022-09-09T16:19:43;3.70;;;1.13;;
49592;SDS011;35499;51.482;4.264;2022-09-09T16:22:27;4.57;;;1.30;;
49592;SDS011;35499;51.482;4.264;2022-09-09T16:25:11;3.45;;;1.33;;
49592;SDS011;35499;51.482;4.264;2022-09-09T16:27:55;2.75;;;1.30;;
49592;SDS011;35499;51.482;4.264;2022-09-09T16:30:39;5.78;;;1.20;;
49592;SDS011;35499;51.482;4.264;2022-09-09T16:33:23;4.35;;;1.70;;
49592;SDS011;35499;51.482;4.264;2022-09-09T16:36:08;3.72;;;1.60;;
49592;SDS011;35499;51.482;4.264;2022-09-09T16:38:54;6.53;;;1.52;;
49592;SDS011;35499;51.482;4.264;2022-09-09T16:41:39;3.80;;;1.30;;
49592;SDS011;35499;51.482;4.264;2022-09-09T16:44:23;2.63;;;1.42;;
49592;SDS011;35499;51.482;4.264;2022-09-09T16:47:09;2.47;;;1.05;;
49592;SDS011;35499;51.482;4.264;2022-09-09T16:49:53;4.57;;;2.00;;
49592;SDS011;35499;51.482;4.264;2022-09-09T16:52:37;3.38;;;1.40;;
49592;SDS011;35499;51.482;4.264;2022-09-09T16:55:21;3.15;;;1.38;;
49592;SDS011;35499;51.482;4.264;2022-09-09T16:58:05;3.13;;;1.25;;
49592;SDS011;35499;51.482;4.264;2022-09-09T17:00:49;3.53;;;1.38;;
49592;SDS011;35499;51.482;4.264;2022-09-09T17:03:34;2.72;;;1.15;;
49592;SDS011;35499;51.482;4.264;2022-09-09T17:06:18;3.20;;;1.00;;
49592;SDS011;35499;51.482;4.264;2022-09-09T17:09:04;2.60;;;1.05;;
49592;SDS011;35499;51.482;4.264;2022-09-09T17:11:48;5.38;;;1.20;;
49592;SDS011;35499;51.482;4.264;2022-09-09T17:14:34;2.15;;;1.13;;
49592;SDS011;35499;51.482;4.264;2022-09-09T17:17:18;5.13;;;1.25;;
49592;SDS011;35499;51.482;4.264;2022-09-09T17:20:02;5.53;;;1.27;;
49592;SDS011;35499;51.482;4.264;2022-09-09T17:22:46;4.55;;;1.40;;
49592;SDS011;35499;51.482;4.264;2022-09-09T17:25:30;4.13;;;1.67;;
49592;SDS011;35499;51.482;4.264;2022-09-09T17:28:14;3.65;;;1.42;;
49592;SDS011;35499;51.482;4.264;2022-09-09T17:30:58;4.75;;;1.75;;
49592;SDS011;35499;51.482;4.264;2022-09-09T17:33:47;4.78;;;1.90;;
49592;SDS011;35499;51.482;4.264;2022-09-09T17:36:32;4.75;;;1.50;;
49592;SDS011;35499;51.482;4.264;2022-09-09T17:39:17;3.00;;;1.33;;
49592;SDS011;35499;51.482;4.264;2022-09-09T17:42:01;3.60;;;1.25;;
49592;SDS011;35499;51.482;4.264;2022-09-09T17:44:45;3.20;;;1.45;;
49592;SDS011;35499;51.482;4.264;2022-09-09T17:47:29;2.53;;;1.42;;
49592;SDS011;35499;51.482;4.264;2022-09-09T17:50:14;2.95;;;1.38;;
49592;SDS011;35499;51.482;4.264;2022-09-09T17:52:58;3.58;;;1.42;;
49592;SDS011;35499;51.482;4.264;2022-09-09T17:55:42;4.43;;;1.75;;
49592;SDS011;35499;51.482;4.264;2022-09-09T17:58:27;4.00;;;1.70;;
49592;SDS011;35499;51.482;4.264;2022-09-09T18:01:12;3.75;;;1.70;;
49592;SDS011;35499;51.482;4.264;2022-09-09T18:03:58;6.43;;;1.92;;
49592;SDS011;35499;51.482;4.264;2022-09-09T18:06:44;4.25;;;1.80;;
49592;SDS011;35499;51.482;4.264;2022-09-09T18:09:29;6.70;;;2.20;;
49592;SDS011;35499;51.482;4.264;2022-09-09T18:12:13;4.88;;;1.90;;
49592;SDS011;35499;51.482;4.264;2022-09-09T18:14:57;7.35;;;2.30;;
49592;SDS011;35499;51.482;4.264;2022-09-09T18:17:42;5.85;;;2.33;;
49592;SDS011;35499;51.482;4.264;2022-09-09T18:20:26;7.95;;;2.40;;
49592;SDS011;35499;51.482;4.264;2022-09-09T18:23:10;6.32;;;2.38;;
49592;SDS011;35499;51.482;4.264;2022-09-09T18:25:54;5.88;;;2.50;;
49592;SDS011;35499;51.482;4.264;2022-09-09T18:28:38;6.03;;;3.05;;
49592;SDS011;35499;51.482;4.264;2022-09-09T18:31:24;5.32;;;2.58;;
49592;SDS011;35499;51.482;4.264;2022-09-09T18:34:09;5.22;;;2.30;;
49592;SDS011;35499;51.482;4.264;2022-09-09T18:36:53;6.20;;;2.65;;
49592;SDS011;35499;51.482;4.264;2022-09-09T18:39:38;5.32;;;2.55;;
49592;SDS011;35499;51.482;4.264;2022-09-09T18:42:22;6.38;;;2.42;;
49592;SDS011;35499;51.482;4.264;2022-09-09T18:45:06;7.93;;;2.67;;
49592;SDS011;35499;51.482;4.264;2022-09-09T18:47:50;4.43;;;2.80;;
49592;SDS011;35499;51.482;4.264;2022-09-09T18:50:35;4.53;;;2.85;;
49592;SDS011;35499;51.482;4.264;2022-09-09T18:53:19;6.13;;;3.42;;
49592;SDS011;35499;51.482;4.264;2022-09-09T18:56:05;7.18;;;3.38;;
49592;SDS011;35499;51.482;4.264;2022-09-09T18:58:53;7.00;;;3.88;;
49592;SDS011;35499;51.482;4.264;2022-09-09T19:01:38;6.15;;;3.65;;
49592;SDS011;35499;51.482;4.264;2022-09-09T19:04:22;6.88;;;4.03;;
49592;SDS011;35499;51.482;4.264;2022-09-09T19:07:07;10.07;;;4.10;;
49592;SDS011;35499;51.482;4.264;2022-09-09T19:09:51;7.10;;;3.55;;
49592;SDS011;35499;51.482;4.264;2022-09-09T19:12:35;10.00;;;4.78;;
49592;SDS011;35499;51.482;4.264;2022-09-09T19:15:19;7.35;;;5.20;;
49592;SDS011;35499;51.482;4.264;2022-09-09T19:18:03;8.98;;;5.07;;
49592;SDS011;35499;51.482;4.264;2022-09-09T19:20:47;9.57;;;4.53;;
49592;SDS011;35499;51.482;4.264;2022-09-09T19:23:31;7.40;;;4.03;;
49592;SDS011;35499;51.482;4.264;2022-09-09T19:26:15;9.25;;;3.63;;
49592;SDS011;35499;51.482;4.264;2022-09-09T19:29:00;7.50;;;3.83;;
49592;SDS011;35499;51.482;4.264;2022-09-09T19:31:45;10.50;;;3.47;;
49592;SDS011;35499;51.482;4.264;2022-09-09T19:34:29;7.20;;;2.90;;
49592;SDS011;35499;51.482;4.264;2022-09-09T19:37:13;5.15;;;2.35;;
49592;SDS011;35499;51.482;4.264;2022-09-09T19:39:57;11.00;;;3.28;;
49592;SDS011;35499;51.482;4.264;2022-09-09T19:42:41;8.13;;;2.60;;
49592;SDS011;35499;51.482;4.264;2022-09-09T19:45:25;5.53;;;2.80;;
49592;SDS011;35499;51.482;4.264;2022-09-09T19:48:10;5.72;;;2.67;;
49592;SDS011;35499;51.482;4.264;2022-09-09T19:50:54;7.55;;;2.38;;
49592;SDS011;35499;51.482;4.264;2022-09-09T19:53:40;8.63;;;3.38;;
49592;SDS011;35499;51.482;4.264;2022-09-09T19:56:25;5.05;;;3.00;;
49592;SDS011;35499;51.482;4.264;2022-09-09T19:59:09;6.80;;;2.83;;
49592;SDS011;35499;51.482;4.264;2022-09-09T20:01:54;5.22;;;3.58;;
49592;SDS011;35499;51.482;4.264;2022-09-09T20:04:39;6.18;;;3.25;;
49592;SDS011;35499;51.482;4.264;2022-09-09T20:07:24;7.07;;;3.10;;
49592;SDS011;35499;51.482;4.264;2022-09-09T20:10:08;9.68;;;3.70;;
49592;SDS011;35499;51.482;4.264;2022-09-09T20:12:52;7.80;;;3.20;;
49592;SDS011;35499;51.482;4.264;2022-09-09T20:15:36;8.13;;;3.28;;
49592;SDS011;35499;51.482;4.264;2022-09-09T20:18:20;6.30;;;3.28;;
49592;SDS011;35499;51.482;4.264;2022-09-09T20:21:05;6.10;;;3.38;;
49592;SDS011;35499;51.482;4.264;2022-09-09T20:23:50;6.28;;;3.15;;
49592;SDS011;35499;51.482;4.264;2022-09-09T20:26:34;6.68;;;2.67;;
49592;SDS011;35499;51.482;4.264;2022-09-09T20:29:20;9.52;;;2.20;;
49592;SDS011;35499;51.482;4.264;2022-09-09T20:32:04;6.25;;;2.55;;
49592;SDS011;35499;51.482;4.264;2022-09-09T20:34:48;8.00;;;3.20;;
49592;SDS011;35499;51.482;4.264;2022-09-09T20:37:32;9.10;;;3.03;;
49592;SDS011;35499;51.482;4.264;2022-09-09T20:40:16;7.32;;;3.15;;
49592;SDS011;35499;51.482;4.264;2022-09-09T20:43:02;9.98;;;2.95;;
49592;SDS011;35499;51.482;4.264;2022-09-09T20:45:46;7.28;;;2.38;;
49592;SDS011;35499;51.482;4.264;2022-09-09T20:48:32;7.30;;;2.22;;
49592;SDS011;35499;51.482;4.264;2022-09-09T20:51:17;6.43;;;2.95;;
49592;SDS011;35499;51.482;4.264;2022-09-09T20:54:06;8.25;;;2.00;;
49592;SDS011;35499;51.482;4.264;2022-09-09T20:56:51;5.28;;;1.92;;
49592;SDS011;35499;51.482;4.264;2022-09-09T20:59:36;5.00;;;1.88;;
49592;SDS011;35499;51.482;4.264;2022-09-09T21:02:19;4.10;;;1.75;;
49592;SDS011;35499;51.482;4.264;2022-09-09T21:05:04;6.28;;;2.00;;
49592;SDS011;35499;51.482;4.264;2022-09-09T21:07:48;5.07;;;1.60;;
49592;SDS011;35499;51.482;4.264;2022-09-09T21:10:32;6.05;;;2.05;;
49592;SDS011;35499;51.482;4.264;2022-09-09T21:13:16;4.63;;;1.63;;
49592;SDS011;35499;51.482;4.264;2022-09-09T21:16:00;7.53;;;1.52;;
49592;SDS011;35499;51.482;4.264;2022-09-09T21:18:44;4.15;;;1.30;;
49592;SDS011;35499;51.482;4.264;2022-09-09T21:21:28;8.68;;;1.95;;
49592;SDS011;35499;51.482;4.264;2022-09-09T21:24:12;4.97;;;1.80;;
49592;SDS011;35499;51.482;4.264;2022-09-09T21:26:56;7.22;;;1.83;;
49592;SDS011;35499;51.482;4.264;2022-09-09T21:29:42;9.73;;;2.00;;
49592;SDS011;35499;51.482;4.264;2022-09-09T21:32:26;6.50;;;1.88;;
49592;SDS011;35499;51.482;4.264;2022-09-09T21:35:10;6.22;;;1.65;;
49592;SDS011;35499;51.482;4.264;2022-09-09T21:37:55;7.35;;;2.08;;
49592;SDS011;35499;51.482;4.264;2022-09-09T21:40:39;6.22;;;2.05;;
49592;SDS011;35499;51.482;4.264;2022-09-09T21:43:24;7.75;;;2.00;;
49592;SDS011;35499;51.482;4.264;2022-09-09T21:46:08;4.45;;;1.83;;
49592;SDS011;35499;51.482;4.264;2022-09-09T21:48:52;6.88;;;2.20;;
49592;SDS011;35499;51.482;4.264;2022-09-09T21:51:39;5.20;;;2.30;;
49592;SDS011;35499;51.482;4.264;2022-09-09T21:54:23;8.18;;;2.00;;
49592;SDS011;35499;51.482;4.264;2022-09-09T21:57:07;5.32;;;1.80;;
49592;SDS011;35499;51.482;4.264;2022-09-09T22:04:36;6.68;;;1.70;;
49592;SDS011;35499;51.482;4.264;2022-09-09T22:07:19;8.82;;;2.70;;
49592;SDS011;35499;51.482;4.264;2022-09-09T22:10:04;5.65;;;1.95;;
49592;SDS011;35499;51.482;4.264;2022-09-09T22:12:48;6.68;;;2.13;;
49592;SDS011;35499;51.482;4.264;2022-09-09T22:15:32;8.45;;;1.88;;
49592;SDS011;35499;51.482;4.264;2022-09-09T22:18:16;6.95;;;2.40;;
49592;SDS011;35499;51.482;4.264;2022-09-09T22:21:05;7.20;;;3.05;;
49592;SDS011;35499;51.482;4.264;2022-09-09T22:23:50;12.32;;;2.30;;
49592;SDS011;35499;51.482;4.264;2022-09-09T22:26:35;6.68;;;2.60;;
49592;SDS011;35499;51.482;4.264;2022-09-09T22:29:19;7.90;;;2.50;;
49592;SDS011;35499;51.482;4.264;2022-09-09T22:32:04;13.13;;;3.75;;
49592;SDS011;35499;51.482;4.264;2022-09-09T22:34:49;9.35;;;2.70;;
49592;SDS011;35499;51.482;4.264;2022-09-09T22:37:33;6.75;;;2.13;;
49592;SDS011;35499;51.482;4.264;2022-09-09T22:40:18;5.80;;;2.22;;
49592;SDS011;35499;51.482;4.264;2022-09-09T22:43:02;8.70;;;2.80;;
49592;SDS011;35499;51.482;4.264;2022-09-09T22:45:46;6.20;;;3.03;;
49592;SDS011;35499;51.482;4.264;2022-09-09T22:48:35;10.63;;;3.35;;
49592;SDS011;35499;51.482;4.264;2022-09-09T22:51:19;9.30;;;2.80;;
49592;SDS011;35499;51.482;4.264;2022-09-09T22:54:03;7.25;;;2.83;;
49592;SDS011;35499;51.482;4.264;2022-09-09T22:56:48;9.23;;;3.05;;
49592;SDS011;35499;51.482;4.264;2022-09-09T22:59:31;7.65;;;2.78;;
49592;SDS011;35499;51.482;4.264;2022-09-09T23:02:16;7.47;;;3.00;;
49592;SDS011;35499;51.482;4.264;2022-09-09T23:05:00;8.38;;;3.13;;
49592;SDS011;35499;51.482;4.264;2022-09-09T23:07:44;10.10;;;3.47;;
49592;SDS011;35499;51.482;4.264;2022-09-09T23:10:29;5.65;;;3.33;;
49592;SDS011;35499;51.482;4.264;2022-09-09T23:13:15;7.18;;;4.15;;
49592;SDS011;35499;51.482;4.264;2022-09-09T23:15:59;10.80;;;3.53;;
49592;SDS011;35499;51.482;4.264;2022-09-09T23:18:46;13.20;;;4.18;;
49592;SDS011;35499;51.482;4.264;2022-09-09T23:21:30;10.38;;;4.20;;
49592;SDS011;35499;51.482;4.264;2022-09-09T23:24:15;12.02;;;4.30;;
49592;SDS011;35499;51.482;4.264;2022-09-09T23:26:59;11.25;;;3.65;;
49592;SDS011;35499;51.482;4.264;2022-09-09T23:29:43;7.55;;;3.85;;
49592;SDS011;35499;51.482;4.264;2022-09-09T23:32:27;13.40;;;4.65;;
49592;SDS011;35499;51.482;4.264;2022-09-09T23:35:11;13.40;;;5.10;;
49592;SDS011;35499;51.482;4.264;2022-09-09T23:37:55;12.38;;;4.90;;
49592;SDS011;35499;51.482;4.264;2022-09-09T23:40:39;10.07;;;5.35;;
49592;SDS011;35499;51.482;4.264;2022-09-09T23:43:23;8.93;;;4.40;;
49592;SDS011;35499;51.482;4.264;2022-09-09T23:46:10;11.75;;;4.60;;
49592;SDS011;35499;51.482;4.264;2022-09-09T23:48:54;10.70;;;4.97;;
49592;SDS011;35499;51.482;4.264;2022-09-09T23:51:39;11.93;;;5.35;;
49592;SDS011;35499;51.482;4.264;2022-09-09T23:54:23;11.93;;;5.35;;
49592;SDS011;35499;51.482;4.264;2022-09-09T23:57:08;9.43;;;4.97;;
49592;SDS011;35499;51.482;4.264;2022-09-09T23:59:51;14.02;;;5.28;;
